Phitsanulok, Thailand
Current Conditions -  °F | °C
As of 10:00 PM on Tuesday 21 Oct 2014 (Local Time) from VTPP Reporting Station
Overcast Overcast  
Wind Chill: 77°   Ceiling: 2200
Heat Index: 78°   Visibility: 4mi
Dew Point: 75°   Wind: 0mph
Humidity: 94%   Direction: NA
Pressure: 29.94"   Gusts: NA
Location:  16.82°N, 100.27°E
Report Text: VTPP 211500Z 00000KT 6000 BKN022 OVC110 25/24 Q1014 A2996
Loading
Personal Weather Stations






























Interactive Weather Map
Tropical Storm Tracking
New forecast layout! Learn more

10-Day Weather Forecast

Advertisements
Track Severe Weather on mobile